createdAt,value
2023-12-03T00:02:18.967Z,54.22
2023-12-03T00:04:47.193Z,55.25
2023-12-03T00:07:15.913Z,54.98
2023-12-03T00:09:45.720Z,55.85
2023-12-03T00:12:13.850Z,56.57
2023-12-03T00:14:42.080Z,56.32
2023-12-03T00:17:10.381Z,57.06
2023-12-03T00:19:38.763Z,57.12
2023-12-03T00:22:07.916Z,56.18
2023-12-03T00:24:37.018Z,56.66
2023-12-03T00:27:06.930Z,55.26
2023-12-03T00:29:35.203Z,54.79
2023-12-03T00:32:03.607Z,54.56
2023-12-03T00:34:31.902Z,55.24
2023-12-03T00:37:00.045Z,55.21
2023-12-03T00:39:28.767Z,55.03
2023-12-03T00:41:57.738Z,55.17
2023-12-03T00:44:27.013Z,55.05
2023-12-03T00:46:55.344Z,55.32
2023-12-03T00:49:23.675Z,55.13
2023-12-03T00:51:52.258Z,54.76
2023-12-03T00:54:20.609Z,55.73
2023-12-03T00:56:48.923Z,55.04
2023-12-03T00:59:17.290Z,54.20
2023-12-03T01:01:45.538Z,54.12
2023-12-03T01:04:13.834Z,54.33
2023-12-03T01:06:43.205Z,54.23
2023-12-03T01:09:11.571Z,54.36
2023-12-03T01:11:41.894Z,54.28
2023-12-03T01:14:10.731Z,53.95
2023-12-03T01:16:38.866Z,54.29
2023-12-03T01:19:07.338Z,54.28
2023-12-03T01:21:35.634Z,53.94
2023-12-03T01:24:04.273Z,54.36
2023-12-03T01:26:32.629Z,54.28
2023-12-03T01:29:00.838Z,54.27
2023-12-03T01:31:29.173Z,54.44
2023-12-03T01:33:57.517Z,55.18
2023-12-03T01:36:25.712Z,55.16
2023-12-03T01:38:54.074Z,54.93
2023-12-03T01:41:22.229Z,55.58
2023-12-03T01:43:54.446Z,55.72
2023-12-03T01:46:23.686Z,55.05
2023-12-03T01:48:53.797Z,55.59
2023-12-03T01:51:22.150Z,54.86
2023-12-03T01:53:51.690Z,54.71
2023-12-03T01:56:20.674Z,55.65
2023-12-03T01:58:48.883Z,55.73
2023-12-03T02:01:18.348Z,56.16
2023-12-03T02:03:46.599Z,56.25
2023-12-03T02:06:15.389Z,56.52
2023-12-03T02:08:43.787Z,56.24
2023-12-03T02:11:12.575Z,56.62
2023-12-03T02:13:40.849Z,56.88
2023-12-03T02:16:09.965Z,57.24
2023-12-03T02:18:39.061Z,56.59
2023-12-03T02:21:08.929Z,58.34
2023-12-03T02:23:38.027Z,58.36
2023-12-03T02:26:06.527Z,57.48
2023-12-03T02:28:34.832Z,59.10
2023-12-03T02:31:03.377Z,59.00
2023-12-03T02:33:31.573Z,58.71
2023-12-03T02:36:01.891Z,57.79
2023-12-03T02:38:30.846Z,59.70
2023-12-03T02:41:00.062Z,58.78
2023-12-03T02:43:28.504Z,59.17
2023-12-03T02:45:59.195Z,59.21
2023-12-03T02:48:28.166Z,57.93
2023-12-03T02:50:57.231Z,58.13
2023-12-03T02:53:25.485Z,58.36
2023-12-03T02:55:53.742Z,59.31
2023-12-03T02:58:22.358Z,59.32
2023-12-03T03:00:50.637Z,59.72
2023-12-03T03:03:18.915Z,58.96
2023-12-03T03:05:47.490Z,58.45
2023-12-03T03:08:15.680Z,59.49
2023-12-03T03:10:43.981Z,60.02
2023-12-03T03:13:12.188Z,60.23
2023-12-03T03:15:40.538Z,59.79
2023-12-03T03:18:09.059Z,59.80
2023-12-03T03:20:37.715Z,59.43
2023-12-03T03:23:06.129Z,61.10
2023-12-03T03:25:34.394Z,60.32
2023-12-03T03:28:04.000Z,60.79
2023-12-03T03:30:32.268Z,60.41
2023-12-03T03:33:00.514Z,61.76
2023-12-03T03:35:28.703Z,61.16
2023-12-03T03:37:57.090Z,59.96
2023-12-03T03:40:25.242Z,60.21
2023-12-03T03:42:53.512Z,59.76
2023-12-03T03:45:22.050Z,59.72
2023-12-03T03:47:50.424Z,61.33
2023-12-03T03:50:18.659Z,61.24
2023-12-03T03:52:46.922Z,60.78
2023-12-03T03:55:15.209Z,60.13
2023-12-03T03:57:43.553Z,60.32
2023-12-03T04:00:12.961Z,60.25
2023-12-03T04:02:41.788Z,60.62
2023-12-03T04:05:10.581Z,60.06
2023-12-03T04:07:39.645Z,60.67
2023-12-03T04:10:08.314Z,61.76
2023-12-03T04:12:37.374Z,60.94
2023-12-03T04:15:07.179Z,61.15
2023-12-03T04:17:35.757Z,61.41
2023-12-03T04:20:05.649Z,60.51
2023-12-03T04:22:35.967Z,60.72
2023-12-03T04:25:05.564Z,61.07
2023-12-03T04:27:33.885Z,61.40
2023-12-03T04:30:02.251Z,62.03
2023-12-03T04:32:30.548Z,61.46
2023-12-03T04:34:58.756Z,61.23
2023-12-03T04:37:26.960Z,61.66
2023-12-03T04:39:55.753Z,61.77
2023-12-03T04:42:23.915Z,61.74
2023-12-03T04:44:52.113Z,61.39
2023-12-03T04:47:20.398Z,61.07
2023-12-03T04:49:49.190Z,61.60
2023-12-03T04:52:17.635Z,61.34
2023-12-03T04:54:45.980Z,61.26
2023-12-03T04:57:14.246Z,60.92
2023-12-03T04:59:42.554Z,61.95
2023-12-03T05:02:10.862Z,61.73
2023-12-03T05:04:39.569Z,61.79
2023-12-03T05:07:08.140Z,61.51
2023-12-03T05:09:41.024Z,61.83
2023-12-03T05:12:09.292Z,62.71
2023-12-03T05:14:38.792Z,62.11
2023-12-03T05:17:07.290Z,62.87
2023-12-03T05:19:36.579Z,62.08
2023-12-03T05:22:04.947Z,61.86
2023-12-03T05:24:33.922Z,62.26
2023-12-03T05:27:02.858Z,62.91
2023-12-03T05:29:31.892Z,62.70
2023-12-03T05:32:00.070Z,62.35
2023-12-03T05:34:28.557Z,62.17
2023-12-03T05:36:57.463Z,63.27
2023-12-03T05:39:25.808Z,62.98
2023-12-03T05:41:54.107Z,62.35
2023-12-03T05:44:22.359Z,62.85
2023-12-03T05:46:50.486Z,62.74
2023-12-03T05:49:19.113Z,63.03
2023-12-03T05:51:48.107Z,62.44
2023-12-03T05:54:16.757Z,63.21
2023-12-03T05:56:49.151Z,62.60
2023-12-03T05:59:18.056Z,62.88
2023-12-03T06:01:46.364Z,62.31
2023-12-03T06:04:14.640Z,62.25
2023-12-03T06:06:42.964Z,62.00
2023-12-03T06:09:11.543Z,62.07
2023-12-03T06:11:41.367Z,62.15
2023-12-03T06:14:09.597Z,61.80
2023-12-03T06:16:37.885Z,61.63
2023-12-03T06:19:06.195Z,62.01
2023-12-03T06:21:34.507Z,61.41
2023-12-03T06:24:02.658Z,61.44
2023-12-03T06:26:31.311Z,61.51
2023-12-03T06:28:59.584Z,61.00
2023-12-03T06:31:29.156Z,61.56
2023-12-03T06:33:58.243Z,60.97
2023-12-03T06:36:28.156Z,61.12
2023-12-03T06:38:56.337Z,61.54
2023-12-03T06:41:24.563Z,61.86
2023-12-03T06:43:53.441Z,61.55
2023-12-03T06:46:21.586Z,61.76
2023-12-03T06:48:50.283Z,61.50
2023-12-03T06:51:19.313Z,60.91
2023-12-03T06:53:47.601Z,61.82
2023-12-03T06:56:15.910Z,61.73
2023-12-03T06:58:44.181Z,61.36
2023-12-03T07:01:14.627Z,60.81
2023-12-03T07:03:44.256Z,60.82
2023-12-03T07:06:14.067Z,60.45
2023-12-03T07:08:42.516Z,60.99
2023-12-03T07:11:14.011Z,60.57
2023-12-03T07:13:44.141Z,60.43
2023-12-03T07:16:12.431Z,60.23
2023-12-03T07:18:46.460Z,60.11
2023-12-03T07:21:15.484Z,60.64
2023-12-03T07:23:43.735Z,60.71
2023-12-03T07:26:12.096Z,60.84
2023-12-03T07:28:40.522Z,60.40
2023-12-03T07:31:09.157Z,60.30
2023-12-03T07:33:37.629Z,60.38
2023-12-03T07:36:06.437Z,60.89
2023-12-03T07:38:37.144Z,60.48
2023-12-03T07:41:13.000Z,60.12
2023-12-03T07:43:41.322Z,60.47
2023-12-03T07:46:11.434Z,60.24
2023-12-03T07:48:39.662Z,60.36
2023-12-03T07:51:11.791Z,60.69
2023-12-03T07:53:43.160Z,60.22
2023-12-03T07:56:11.397Z,60.38
2023-12-03T07:58:39.670Z,60.51
2023-12-03T08:01:09.001Z,60.25
2023-12-03T08:03:37.216Z,60.34
2023-12-03T08:06:07.541Z,60.31
2023-12-03T08:08:35.687Z,60.96
2023-12-03T08:11:03.973Z,60.62
2023-12-03T08:13:32.248Z,60.67
2023-12-03T08:16:04.292Z,60.18
2023-12-03T08:18:33.699Z,60.19
2023-12-03T08:21:02.167Z,59.96
2023-12-03T08:23:30.821Z,59.97
2023-12-03T08:26:00.563Z,59.79
2023-12-03T08:28:29.418Z,59.81
2023-12-03T08:31:00.264Z,59.35
2023-12-03T08:33:29.396Z,59.24
2023-12-03T08:36:01.770Z,59.02
2023-12-03T08:38:30.240Z,58.65
2023-12-03T08:40:58.527Z,58.21
2023-12-03T08:43:26.961Z,57.86
2023-12-03T08:45:55.508Z,57.97
2023-12-03T08:48:24.539Z,57.79
2023-12-03T08:50:53.102Z,57.08
2023-12-03T08:53:21.485Z,56.28
2023-12-03T08:55:49.774Z,56.01
2023-12-03T08:58:18.591Z,55.65
2023-12-03T09:00:53.004Z,55.35
2023-12-03T09:03:23.781Z,55.76
2023-12-03T09:05:53.252Z,55.56
2023-12-03T09:08:21.520Z,55.36
2023-12-03T09:10:50.235Z,54.97
2023-12-03T09:13:20.950Z,54.44
2023-12-03T09:15:49.233Z,54.57
2023-12-03T09:18:17.386Z,54.59
2023-12-03T09:20:46.084Z,54.45
2023-12-03T09:23:14.603Z,54.60
2023-12-03T09:25:43.126Z,54.42
2023-12-03T09:28:13.068Z,54.61
2023-12-03T09:30:41.387Z,54.76
2023-12-03T09:33:10.107Z,55.04
2023-12-03T09:35:38.287Z,55.07
2023-12-03T09:38:06.440Z,55.31
2023-12-03T09:40:37.035Z,55.79
2023-12-03T09:43:06.416Z,55.83
2023-12-03T09:45:34.723Z,56.35
2023-12-03T09:48:03.860Z,57.15
2023-12-03T09:50:35.694Z,57.75
2023-12-03T09:53:14.010Z,58.73
2023-12-03T09:55:45.837Z,58.68
2023-12-03T09:58:17.255Z,59.51
2023-12-03T10:00:46.234Z,59.67
2023-12-03T10:03:14.969Z,59.23
2023-12-03T10:05:44.059Z,59.03
2023-12-03T10:08:14.073Z,59.33
2023-12-03T10:10:48.261Z,60.03
2023-12-03T10:13:19.554Z,60.73
2023-12-03T10:15:50.334Z,61.81
2023-12-03T10:18:20.594Z,61.90
2023-12-03T10:21:09.821Z,62.06
2023-12-03T10:23:43.027Z,61.43
2023-12-03T10:26:16.277Z,61.41
2023-12-03T10:28:46.054Z,61.47
2023-12-03T10:31:15.608Z,61.48
2023-12-03T10:33:47.086Z,60.98
2023-12-03T10:36:21.607Z,61.70
2023-12-03T10:38:50.809Z,61.81
2023-12-03T10:41:24.984Z,61.95
2023-12-03T10:43:55.686Z,61.75
2023-12-03T10:46:24.841Z,61.91
2023-12-03T10:48:53.789Z,61.98
2023-12-03T10:51:23.067Z,62.35
2023-12-03T10:53:51.897Z,62.76
2023-12-03T10:56:22.426Z,62.79
2023-12-03T10:58:54.255Z,62.65
2023-12-03T11:01:25.562Z,62.75
2023-12-03T11:04:07.429Z,63.48
2023-12-03T11:06:36.777Z,62.65
2023-12-03T11:09:08.251Z,63.01
2023-12-03T11:11:40.054Z,62.70
2023-12-03T11:14:08.978Z,62.92
2023-12-03T11:16:49.386Z,63.57
2023-12-03T11:19:22.794Z,62.93
2023-12-03T11:22:04.335Z,63.50
2023-12-03T11:25:08.681Z,63.72
2023-12-03T11:27:41.188Z,63.58
2023-12-03T11:30:12.707Z,63.71
2023-12-03T11:32:54.801Z,63.53
2023-12-03T11:35:26.348Z,63.89
2023-12-03T11:37:58.026Z,64.04
2023-12-03T11:40:37.472Z,63.55
2023-12-03T11:43:08.327Z,63.02
2023-12-03T11:45:47.215Z,63.41
2023-12-03T11:48:19.376Z,63.13
2023-12-03T11:50:51.078Z,63.33
2023-12-03T11:53:37.254Z,63.05
2023-12-03T11:56:11.134Z,62.94
2023-12-03T11:58:41.801Z,63.15
2023-12-03T12:01:11.219Z,63.12
2023-12-03T12:03:44.833Z,63.32
2023-12-03T12:06:17.886Z,63.47
2023-12-03T12:08:48.749Z,63.58
2023-12-03T12:11:17.117Z,63.84
2023-12-03T12:13:47.503Z,63.68
2023-12-03T12:16:19.459Z,63.28
2023-12-03T12:18:49.910Z,63.14
2023-12-03T12:21:21.177Z,62.92
2023-12-03T12:23:53.753Z,63.31
2023-12-03T12:26:23.018Z,63.61
2023-12-03T12:28:52.493Z,63.72
2023-12-03T12:31:26.061Z,63.33
2023-12-03T12:33:58.637Z,63.25
2023-12-03T12:36:27.758Z,63.55
2023-12-03T12:38:57.896Z,62.98
2023-12-03T12:41:41.992Z,63.47
2023-12-03T12:44:46.929Z,62.96
2023-12-03T12:47:22.948Z,63.87
2023-12-03T12:49:55.548Z,63.77
2023-12-03T12:52:26.366Z,64.22
2023-12-03T12:55:03.962Z,64.09
2023-12-03T12:57:45.010Z,63.97
2023-12-03T13:00:14.079Z,63.81
2023-12-03T13:02:43.918Z,63.43
2023-12-03T13:05:13.645Z,63.04
2023-12-03T13:07:42.014Z,63.12
2023-12-03T13:10:10.627Z,62.98
2023-12-03T13:12:41.697Z,62.67
2023-12-03T13:15:13.454Z,63.18
2023-12-03T13:17:47.437Z,63.25
2023-12-03T13:20:18.600Z,63.67
2023-12-03T13:22:46.947Z,63.69
2023-12-03T13:25:16.059Z,63.65
2023-12-03T13:27:45.303Z,64.02
2023-12-03T13:30:19.069Z,63.40
2023-12-03T13:32:48.236Z,63.55
2023-12-03T13:35:19.176Z,64.00
2023-12-03T13:37:52.314Z,64.10
2023-12-03T13:40:20.808Z,63.99
2023-12-03T13:42:54.152Z,63.76
2023-12-03T13:45:23.015Z,63.58
2023-12-03T13:47:51.440Z,63.60
2023-12-03T13:50:20.318Z,63.47
2023-12-03T13:52:48.723Z,63.28
2023-12-03T13:55:17.129Z,63.63
2023-12-03T13:57:46.157Z,63.91
2023-12-03T14:00:20.730Z,63.60
2023-12-03T14:02:49.760Z,63.92
2023-12-03T14:05:24.596Z,64.28
2023-12-03T14:07:54.718Z,64.38
2023-12-03T14:10:30.559Z,64.07
2023-12-03T14:12:59.321Z,65.31
2023-12-03T14:15:28.523Z,64.90
2023-12-03T14:17:57.736Z,64.82
2023-12-03T14:20:28.796Z,65.28
2023-12-03T14:22:57.806Z,65.61
2023-12-03T14:25:30.321Z,65.28
2023-12-03T14:27:59.111Z,64.85
2023-12-03T14:30:28.668Z,64.59
2023-12-03T14:32:59.340Z,64.55
2023-12-03T14:35:29.537Z,64.49
2023-12-03T14:37:57.966Z,65.16
2023-12-03T14:40:28.360Z,64.52
2023-12-03T14:42:56.568Z,64.33
2023-12-03T14:45:27.282Z,63.82
2023-12-03T14:47:56.126Z,63.67
2023-12-03T14:50:28.767Z,63.48
2023-12-03T14:52:57.791Z,63.48
2023-12-03T14:55:29.228Z,63.54
2023-12-03T14:57:57.975Z,63.55
2023-12-03T15:00:26.876Z,63.67
2023-12-03T15:02:56.726Z,63.74
2023-12-03T15:05:28.518Z,63.56
2023-12-03T15:08:03.913Z,63.35
2023-12-03T15:10:33.242Z,63.09
2023-12-03T15:13:07.195Z,62.95
2023-12-03T15:15:36.263Z,62.99
2023-12-03T15:18:07.196Z,62.53
2023-12-03T15:20:35.427Z,62.51
2023-12-03T15:23:03.874Z,62.27
2023-12-03T15:25:33.435Z,62.48
2023-12-03T15:28:01.695Z,62.36
2023-12-03T15:30:33.196Z,62.41
2023-12-03T15:33:01.469Z,62.37
2023-12-03T15:35:31.992Z,62.25
2023-12-03T15:38:02.507Z,62.04
2023-12-03T15:40:30.558Z,62.23
2023-12-03T15:42:58.697Z,62.36
2023-12-03T15:45:26.910Z,62.19
2023-12-03T15:47:58.341Z,62.36
2023-12-03T15:50:26.593Z,62.17
2023-12-03T15:52:57.291Z,62.11
2023-12-03T15:55:25.993Z,62.40
2023-12-03T15:57:54.287Z,63.11
2023-12-03T16:00:22.922Z,62.16
2023-12-03T16:02:52.860Z,61.39
2023-12-03T16:05:21.267Z,60.95
2023-12-03T16:07:52.005Z,60.56
2023-12-03T16:10:21.544Z,60.74
2023-12-03T16:12:49.872Z,60.30
2023-12-03T16:15:18.161Z,60.22
2023-12-03T16:17:46.597Z,58.43
2023-12-03T16:20:18.311Z,58.89
2023-12-03T16:22:51.740Z,59.47
2023-12-03T16:25:22.146Z,59.24
2023-12-03T16:27:57.957Z,58.44
2023-12-03T16:30:42.178Z,58.82
2023-12-03T16:33:13.932Z,58.98
2023-12-03T16:35:45.123Z,59.15
2023-12-03T16:38:24.754Z,58.85
2023-12-03T16:40:56.635Z,59.04
2023-12-03T16:43:36.897Z,59.24
2023-12-03T16:46:15.096Z,59.19
2023-12-03T16:48:49.124Z,58.96
2023-12-03T16:51:17.414Z,58.90
2023-12-03T16:54:01.740Z,58.94
2023-12-03T16:56:32.336Z,58.88
2023-12-03T16:59:03.621Z,58.67
2023-12-03T17:01:33.668Z,58.81
2023-12-03T17:04:07.354Z,58.59
2023-12-03T17:06:39.905Z,58.49
2023-12-03T17:09:10.728Z,58.61
2023-12-03T17:11:39.522Z,58.87
2023-12-03T17:14:11.710Z,58.66
2023-12-03T17:16:43.430Z,59.19
2023-12-03T17:19:11.959Z,58.97
2023-12-03T17:21:41.359Z,59.08
2023-12-03T17:24:15.100Z,59.26
2023-12-03T17:26:58.822Z,59.26
2023-12-03T17:29:30.766Z,59.30
2023-12-03T17:32:02.921Z,59.50
2023-12-03T17:34:34.587Z,59.62
2023-12-03T17:37:02.981Z,59.48
2023-12-03T17:39:33.933Z,59.33
2023-12-03T17:42:02.552Z,59.46
2023-12-03T17:44:33.335Z,59.69
2023-12-03T17:47:03.801Z,59.92
2023-12-03T17:49:32.141Z,59.64
2023-12-03T17:52:00.496Z,59.66
2023-12-03T17:54:30.085Z,59.86
2023-12-03T17:56:58.387Z,59.71
2023-12-03T17:59:26.553Z,59.86
2023-12-03T18:01:55.391Z,60.17
2023-12-03T18:04:23.724Z,60.47
2023-12-03T18:06:52.081Z,60.53
2023-12-03T18:09:20.854Z,60.67
2023-12-03T18:11:49.067Z,60.60
2023-12-03T18:14:20.074Z,60.55
2023-12-03T18:16:50.808Z,60.87
2023-12-03T18:19:19.215Z,61.03
2023-12-03T18:21:47.499Z,61.32
2023-12-03T18:24:15.750Z,61.00
2023-12-03T18:26:44.167Z,60.58
2023-12-03T18:29:12.414Z,60.02
2023-12-03T18:31:42.832Z,59.86
2023-12-03T18:34:12.724Z,59.23
2023-12-03T18:36:43.084Z,59.20
2023-12-03T18:39:12.635Z,59.56
2023-12-03T18:41:40.929Z,59.54
2023-12-03T18:44:09.179Z,59.42
2023-12-03T18:46:37.400Z,59.18
2023-12-03T18:49:05.661Z,59.12
2023-12-03T18:51:34.154Z,58.66
2023-12-03T18:54:05.416Z,58.63
2023-12-03T18:56:33.877Z,58.68
2023-12-03T18:59:05.854Z,58.71
2023-12-03T19:01:34.120Z,58.76
2023-12-03T19:04:03.200Z,59.05
2023-12-03T19:06:31.454Z,59.04
2023-12-03T19:09:02.497Z,58.90
2023-12-03T19:11:30.918Z,58.78
2023-12-03T19:14:02.188Z,58.73
2023-12-03T19:16:32.659Z,58.64
2023-12-03T19:19:03.355Z,58.42
2023-12-03T19:21:34.966Z,57.66
2023-12-03T19:24:05.014Z,57.90
2023-12-03T19:26:34.453Z,57.83
2023-12-03T19:29:02.743Z,58.12
2023-12-03T19:31:32.871Z,57.97
2023-12-03T19:34:03.548Z,58.13
2023-12-03T19:36:35.656Z,58.03
2023-12-03T19:39:04.253Z,57.81
2023-12-03T19:41:32.923Z,57.80
2023-12-03T19:44:01.049Z,57.91
2023-12-03T19:46:29.127Z,58.11
2023-12-03T19:48:58.002Z,57.83
2023-12-03T19:51:26.221Z,57.75
2023-12-03T19:53:54.528Z,57.80
2023-12-03T19:56:23.259Z,57.83
2023-12-03T19:58:53.746Z,57.99
2023-12-03T20:01:25.099Z,58.07
2023-12-03T20:03:54.557Z,58.30
2023-12-03T20:06:26.057Z,57.94
2023-12-03T20:08:57.065Z,58.09
2023-12-03T20:11:28.121Z,58.07
2023-12-03T20:13:56.627Z,57.99
2023-12-03T20:16:28.717Z,58.07
2023-12-03T20:18:57.173Z,57.94
2023-12-03T20:21:28.379Z,57.90
2023-12-03T20:23:56.717Z,57.92
2023-12-03T20:26:25.001Z,58.17
2023-12-03T20:28:53.976Z,58.02
2023-12-03T20:31:28.539Z,58.43
2023-12-03T20:33:57.588Z,58.29
2023-12-03T20:36:26.146Z,58.43
2023-12-03T20:38:56.249Z,58.32
2023-12-03T20:41:24.991Z,58.48
2023-12-03T20:43:53.523Z,58.70
2023-12-03T20:46:22.861Z,58.66
2023-12-03T20:48:51.220Z,58.95
2023-12-03T20:51:19.760Z,58.95
2023-12-03T20:53:48.273Z,58.74
2023-12-03T20:56:18.972Z,58.53
2023-12-03T20:58:47.178Z,58.57
2023-12-03T21:01:15.559Z,58.86
2023-12-03T21:03:43.865Z,58.78
2023-12-03T21:06:12.243Z,59.23
2023-12-03T21:08:40.594Z,59.45
2023-12-03T21:11:09.939Z,59.30
2023-12-03T21:13:38.785Z,59.30
2023-12-03T21:16:07.796Z,59.31
2023-12-03T21:18:36.191Z,59.15
2023-12-03T21:21:04.415Z,59.71
2023-12-03T21:23:32.515Z,59.78
2023-12-03T21:26:00.714Z,59.67
2023-12-03T21:28:28.960Z,59.62
2023-12-03T21:30:57.204Z,59.92
2023-12-03T21:33:25.559Z,60.13
2023-12-03T21:35:56.172Z,59.97
2023-12-03T21:38:24.374Z,60.04
2023-12-03T21:40:52.468Z,60.03
2023-12-03T21:43:22.721Z,59.99
2023-12-03T21:45:55.209Z,60.21
2023-12-03T21:48:23.530Z,60.53
2023-12-03T21:50:51.766Z,60.02
2023-12-03T21:53:19.970Z,60.09
2023-12-03T21:55:48.170Z,59.73
2023-12-03T21:58:16.667Z,59.65
2023-12-03T22:00:44.868Z,58.84
2023-12-03T22:03:13.176Z,58.64
2023-12-03T22:05:41.463Z,58.87
2023-12-03T22:08:10.015Z,58.43
2023-12-03T22:10:38.192Z,57.95
2023-12-03T22:13:06.377Z,57.97
2023-12-03T22:15:34.557Z,57.92
2023-12-03T22:18:04.074Z,57.72
2023-12-03T22:20:33.587Z,57.87
2023-12-03T22:23:01.773Z,58.24
2023-12-03T22:25:30.457Z,58.16
2023-12-03T22:27:58.603Z,58.17
2023-12-03T22:30:29.377Z,58.44
2023-12-03T22:32:58.441Z,58.77
2023-12-03T22:35:26.716Z,59.06
2023-12-03T22:37:55.578Z,59.16
2023-12-03T22:40:23.698Z,58.93
2023-12-03T22:42:52.193Z,59.15
2023-12-03T22:45:20.387Z,58.94
2023-12-03T22:47:48.436Z,58.84
2023-12-03T22:50:16.576Z,58.77
2023-12-03T22:52:44.771Z,58.72
2023-12-03T22:55:12.956Z,58.58
2023-12-03T22:57:41.052Z,58.54
2023-12-03T23:00:11.085Z,58.24
2023-12-03T23:02:39.322Z,58.01
2023-12-03T23:05:07.804Z,57.96
2023-12-03T23:07:36.127Z,57.90
2023-12-03T23:10:04.589Z,57.75
2023-12-03T23:12:33.028Z,57.62
2023-12-03T23:15:02.287Z,57.69
2023-12-03T23:17:30.467Z,57.72
2023-12-03T23:19:58.711Z,57.79
2023-12-03T23:22:26.993Z,57.90
2023-12-03T23:24:56.011Z,58.00
2023-12-03T23:27:24.145Z,57.66
2023-12-03T23:29:52.306Z,57.67
2023-12-03T23:32:20.414Z,57.75
2023-12-03T23:34:48.683Z,57.75
2023-12-03T23:37:16.809Z,57.55
2023-12-03T23:39:45.157Z,57.26
2023-12-03T23:42:13.295Z,56.97
2023-12-03T23:44:41.431Z,57.26
2023-12-03T23:47:11.374Z,57.43
2023-12-03T23:49:39.491Z,57.47
2023-12-03T23:52:07.789Z,57.65
2023-12-03T23:54:39.990Z,57.35
2023-12-03T23:57:09.408Z,57.00
2023-12-03T23:59:37.478Z,57.55
